createdAt,value
2018-07-20T00:01:51.000Z,2.60
2018-07-20T00:04:21.260Z,2.77
2018-07-20T00:06:51.022Z,2.67
2018-07-20T00:09:21.574Z,2.53
2018-07-20T00:11:52.620Z,2.50
2018-07-20T00:14:23.678Z,2.40
2018-07-20T00:16:56.351Z,2.90
2018-07-20T00:19:25.649Z,2.67
2018-07-20T00:21:55.721Z,2.60
2018-07-20T00:24:25.929Z,2.60
2018-07-20T00:26:55.388Z,2.20
2018-07-20T00:29:25.323Z,2.67
2018-07-20T00:31:54.890Z,2.83
2018-07-20T00:34:24.957Z,2.20
2018-07-20T00:37:05.700Z,2.70
2018-07-20T00:39:35.950Z,2.50
2018-07-20T00:42:05.659Z,2.30
2018-07-20T00:44:36.027Z,2.30
2018-07-20T00:47:06.747Z,2.57
2018-07-20T00:49:36.697Z,2.20
2018-07-20T00:52:06.083Z,2.60
2018-07-20T00:54:35.326Z,2.70
2018-07-20T00:57:10.144Z,2.60
2018-07-20T00:59:39.416Z,2.50
2018-07-20T01:02:10.327Z,2.77
2018-07-20T01:04:40.479Z,2.27
2018-07-20T01:07:11.177Z,2.33
2018-07-20T01:09:40.425Z,2.77
2018-07-20T01:12:10.845Z,3.00
2018-07-20T01:14:41.096Z,2.63
2018-07-20T01:17:10.365Z,2.57
2018-07-20T01:19:39.700Z,2.90
2018-07-20T01:22:10.250Z,2.53
2018-07-20T01:24:39.993Z,2.57
2018-07-20T01:27:10.775Z,2.57
2018-07-20T01:29:41.137Z,2.67
2018-07-20T01:32:11.217Z,2.40
2018-07-20T01:34:40.839Z,2.73
2018-07-20T01:37:18.785Z,2.27
2018-07-20T01:39:49.310Z,2.60
2018-07-20T01:42:19.201Z,2.67
2018-07-20T01:44:49.794Z,2.60
2018-07-20T01:47:20.618Z,2.40
2018-07-20T01:49:50.410Z,2.70
2018-07-20T01:52:21.012Z,2.80
2018-07-20T01:54:50.575Z,2.57
2018-07-20T01:57:20.835Z,2.53
2018-07-20T01:59:51.238Z,2.47
2018-07-20T02:02:23.065Z,2.90
2018-07-20T02:04:55.086Z,2.50
2018-07-20T02:07:25.481Z,2.53
2018-07-20T02:09:54.830Z,2.40
2018-07-20T02:12:24.078Z,2.53
2018-07-20T02:14:53.316Z,2.70
2018-07-20T02:17:33.746Z,2.60
2018-07-20T02:20:04.071Z,2.83
2018-07-20T02:22:34.660Z,2.67
2018-07-20T02:25:04.994Z,2.63
2018-07-20T02:27:35.772Z,2.50
2018-07-20T02:30:05.664Z,2.93
2018-07-20T02:32:35.247Z,2.80
2018-07-20T02:35:05.278Z,2.87
2018-07-20T02:37:34.685Z,2.43
2018-07-20T02:40:05.801Z,2.50
2018-07-20T02:42:35.969Z,2.90
2018-07-20T02:45:06.923Z,2.70
2018-07-20T02:47:43.002Z,2.80
2018-07-20T02:50:12.673Z,2.30
2018-07-20T02:52:42.039Z,2.90
2018-07-20T02:55:11.269Z,2.90
2018-07-20T02:57:41.866Z,2.47
2018-07-20T03:00:13.130Z,2.60
2018-07-20T03:02:43.022Z,2.63
2018-07-20T03:05:13.714Z,2.90
2018-07-20T03:07:44.399Z,2.60
2018-07-20T03:10:13.656Z,2.53
2018-07-20T03:12:44.023Z,2.43
2018-07-20T03:15:13.853Z,2.63
2018-07-20T03:17:43.216Z,2.90
2018-07-20T03:20:14.335Z,2.27
2018-07-20T03:22:43.675Z,2.53
2018-07-20T03:25:13.279Z,2.63
2018-07-20T03:27:43.311Z,2.50
2018-07-20T03:30:13.148Z,2.43
2018-07-20T03:32:44.045Z,2.57
2018-07-20T03:35:14.401Z,2.90
2018-07-20T03:37:44.623Z,2.80
2018-07-20T03:40:14.151Z,2.53
2018-07-20T03:42:44.222Z,2.70
2018-07-20T03:45:13.494Z,2.77
2018-07-20T03:47:43.222Z,2.60
2018-07-20T03:50:13.675Z,2.87
2018-07-20T03:52:42.956Z,2.30
2018-07-20T03:55:14.356Z,2.50
2018-07-20T03:57:44.321Z,2.67
2018-07-20T04:00:14.034Z,2.30
2018-07-20T04:02:48.270Z,2.57
2018-07-20T04:05:18.008Z,2.60
2018-07-20T04:07:49.306Z,2.80
2018-07-20T04:10:19.253Z,2.50
2018-07-20T04:12:48.575Z,2.60
2018-07-20T04:15:18.417Z,2.50
2018-07-20T04:17:51.005Z,2.77
2018-07-20T04:20:22.306Z,2.23
2018-07-20T04:22:51.947Z,2.50
2018-07-20T04:25:22.541Z,2.53
2018-07-20T04:27:59.776Z,2.63
2018-07-20T04:30:29.358Z,2.63
2018-07-20T04:32:58.609Z,2.43
2018-07-20T04:35:27.914Z,2.47
2018-07-20T04:37:57.472Z,2.60
2018-07-20T04:40:28.398Z,2.13
2018-07-20T04:42:59.417Z,2.63
2018-07-20T04:45:28.673Z,2.40
2018-07-20T04:48:01.995Z,2.50
2018-07-20T04:50:31.768Z,2.43
2018-07-20T04:53:02.677Z,2.50
2018-07-20T04:55:33.190Z,2.50
2018-07-20T04:58:03.839Z,2.77
2018-07-20T05:00:35.235Z,2.60
2018-07-20T05:03:05.944Z,2.70
2018-07-20T05:05:35.881Z,2.57
2018-07-20T05:08:06.231Z,2.40
2018-07-20T05:10:36.274Z,2.73
2018-07-20T05:13:05.583Z,2.60
2018-07-20T05:15:35.807Z,2.80
2018-07-20T05:18:05.042Z,2.40
2018-07-20T05:20:36.649Z,2.57
2018-07-20T05:23:06.451Z,2.40
2018-07-20T05:25:36.172Z,2.60
2018-07-20T05:34:34.780Z,2.63
2018-07-20T05:37:04.047Z,2.90
2018-07-20T05:39:33.770Z,2.80
2018-07-20T05:42:04.337Z,2.23
2018-07-20T05:44:36.018Z,2.60
2018-07-20T05:47:05.925Z,2.87
2018-07-20T05:49:36.182Z,2.80
2018-07-20T05:52:05.426Z,2.67
2018-07-20T05:54:37.526Z,2.60
2018-07-20T05:57:07.788Z,2.47
2018-07-20T05:59:37.974Z,2.53
2018-07-20T06:02:07.447Z,2.30
2018-07-20T06:04:40.358Z,2.50
2018-07-20T06:07:09.602Z,2.60
2018-07-20T06:09:39.860Z,2.80
2018-07-20T06:12:09.456Z,2.83
2018-07-20T06:14:38.760Z,2.70
2018-07-20T06:17:08.810Z,2.77
2018-07-20T06:19:39.118Z,2.63
2018-07-20T06:22:08.374Z,2.77
2018-07-20T06:24:38.079Z,2.73
2018-07-20T06:27:07.724Z,2.47
2018-07-20T06:29:37.633Z,2.93
2018-07-20T06:32:07.230Z,3.50
2018-07-20T06:34:36.982Z,3.23
2018-07-20T06:37:06.249Z,2.93
2018-07-20T06:39:35.645Z,3.27
2018-07-20T06:42:05.586Z,3.13
2018-07-20T06:44:35.238Z,3.30
2018-07-20T06:47:04.478Z,2.63
2018-07-20T06:49:33.774Z,3.10
2018-07-20T06:52:03.893Z,3.00
2018-07-20T06:54:33.182Z,3.10
2018-07-20T06:57:02.663Z,3.00
2018-07-20T06:59:32.955Z,2.97
2018-07-20T07:02:02.434Z,3.40
2018-07-20T07:04:33.417Z,3.07
2018-07-20T07:07:03.592Z,3.20
2018-07-20T07:09:33.029Z,3.03
2018-07-20T07:12:02.365Z,3.30
2018-07-20T07:14:32.591Z,3.37
2018-07-20T07:17:02.702Z,3.20
2018-07-20T07:19:32.879Z,3.30
2018-07-20T07:22:02.138Z,3.23
2018-07-20T07:24:32.358Z,2.80
2018-07-20T07:27:02.154Z,3.40
2018-07-20T07:29:31.466Z,3.00
2018-07-20T07:32:00.732Z,3.37
2018-07-20T07:34:30.212Z,3.10
2018-07-20T07:37:00.282Z,3.37
2018-07-20T07:39:29.682Z,3.50
2018-07-20T07:41:59.174Z,3.50
2018-07-20T07:44:28.972Z,3.23
2018-07-20T07:46:58.251Z,3.80
2018-07-20T07:49:27.517Z,3.20
2018-07-20T07:51:57.032Z,3.00
2018-07-20T07:54:27.138Z,3.20
2018-07-20T07:56:56.631Z,2.87
2018-07-20T07:59:26.471Z,3.20
2018-07-20T08:01:55.723Z,3.40
2018-07-20T08:04:24.981Z,3.20
2018-07-20T08:06:55.120Z,3.33
2018-07-20T08:09:24.670Z,3.30
2018-07-20T08:11:54.195Z,3.20
2018-07-20T08:14:26.607Z,3.20
2018-07-20T08:16:56.492Z,2.87
2018-07-20T08:19:26.646Z,2.80
2018-07-20T08:21:56.623Z,3.33
2018-07-20T08:24:49.170Z,3.33
2018-07-20T08:27:19.142Z,3.30
2018-07-20T08:29:48.897Z,3.23
2018-07-20T08:32:21.144Z,2.60
2018-07-20T08:34:53.562Z,3.50
2018-07-20T08:37:24.873Z,3.60
2018-07-20T08:39:56.207Z,3.10
2018-07-20T08:42:27.866Z,3.10
2018-07-20T08:45:05.354Z,3.07
2018-07-20T08:47:35.921Z,3.97
2018-07-20T08:50:06.986Z,3.50
2018-07-20T08:52:36.503Z,3.30
2018-07-20T08:55:07.915Z,3.27
2018-07-20T08:57:37.184Z,2.87
2018-07-20T09:00:07.847Z,3.20
2018-07-20T09:02:38.698Z,3.47
2018-07-20T09:05:15.342Z,3.10
2018-07-20T09:07:46.571Z,3.03
2018-07-20T09:10:18.373Z,2.87
2018-07-20T09:12:48.806Z,2.77
2018-07-20T09:15:20.330Z,3.40
2018-07-20T09:17:50.306Z,2.90
2018-07-20T09:20:20.251Z,3.10
2018-07-20T09:22:50.072Z,3.20
2018-07-20T09:25:21.627Z,2.93
2018-07-20T09:27:52.445Z,3.40
2018-07-20T09:30:22.943Z,3.30
2018-07-20T09:32:52.665Z,3.37
2018-07-20T09:35:32.979Z,3.30
2018-07-20T09:38:03.900Z,3.10
2018-07-20T09:40:35.387Z,3.30
2018-07-20T09:46:14.653Z,3.43
2018-07-20T09:49:04.941Z,3.53
2018-07-20T09:51:35.111Z,3.23
2018-07-20T09:54:05.083Z,3.70
2018-07-20T10:02:54.786Z,3.00
2018-07-20T10:05:24.837Z,3.40
2018-07-20T10:07:55.016Z,3.57
2018-07-20T10:10:24.663Z,3.27
2018-07-20T10:12:54.720Z,3.40
2018-07-20T10:15:24.345Z,3.40
2018-07-20T10:17:53.576Z,3.10
2018-07-20T10:20:34.761Z,3.37
2018-07-20T10:23:04.043Z,3.10
2018-07-20T10:25:34.752Z,3.43
2018-07-20T10:28:04.800Z,3.00
2018-07-20T10:30:34.244Z,3.30
2018-07-20T10:33:03.890Z,3.40
2018-07-20T10:35:33.478Z,3.30
2018-07-20T10:38:02.970Z,3.00
2018-07-20T10:40:32.255Z,3.13
2018-07-20T10:43:02.443Z,2.97
2018-07-20T10:45:38.490Z,3.50
2018-07-20T10:48:09.293Z,3.53
2018-07-20T10:50:50.503Z,3.47
2018-07-20T10:53:21.898Z,2.97
2018-07-20T10:55:53.403Z,3.47
2018-07-20T10:58:24.409Z,2.97
2018-07-20T11:00:54.149Z,3.37
2018-07-20T11:03:24.087Z,3.30
2018-07-20T11:05:54.722Z,2.93
2018-07-20T11:08:25.287Z,2.77
2018-07-20T11:11:00.516Z,3.43
2018-07-20T11:13:31.065Z,3.10
2018-07-20T11:16:01.607Z,3.50
2018-07-20T11:18:31.305Z,3.20
2018-07-20T11:21:12.238Z,3.23
2018-07-20T11:23:42.774Z,3.27
2018-07-20T11:26:12.480Z,3.40
2018-07-20T11:28:43.644Z,3.20
2018-07-20T11:31:13.949Z,2.67
2018-07-20T11:33:44.702Z,3.60
2018-07-20T11:36:14.978Z,3.30
2018-07-20T11:38:45.922Z,3.13
2018-07-20T11:41:16.608Z,3.10
2018-07-20T11:43:46.206Z,3.10
2018-07-20T11:46:17.486Z,3.30
2018-07-20T11:48:49.728Z,3.13
2018-07-20T11:51:29.290Z,2.83
2018-07-20T11:54:00.265Z,3.33
2018-07-20T11:56:30.850Z,3.63
2018-07-20T11:59:00.893Z,3.40
2018-07-20T12:01:32.408Z,3.70
2018-07-20T12:04:02.682Z,3.43
2018-07-20T12:06:32.464Z,3.17
2018-07-20T12:09:03.511Z,3.50
2018-07-20T12:11:45.937Z,3.20
2018-07-20T12:14:16.349Z,3.30
2018-07-20T12:16:47.224Z,3.30
2018-07-20T12:19:18.002Z,3.33
2018-07-20T12:21:48.907Z,3.60
2018-07-20T12:24:19.516Z,3.00
2018-07-20T12:26:50.419Z,3.40
2018-07-20T12:29:20.303Z,3.57
2018-07-20T12:31:50.248Z,3.23
2018-07-20T12:34:20.941Z,3.20
2018-07-20T12:36:52.279Z,3.33
2018-07-20T12:39:22.434Z,3.37
2018-07-20T12:41:52.356Z,3.40
2018-07-20T12:44:21.852Z,3.13
2018-07-20T12:46:52.305Z,3.30
2018-07-20T12:49:22.401Z,3.10
2018-07-20T12:51:58.979Z,2.97
2018-07-20T12:54:29.716Z,3.53
2018-07-20T12:57:01.380Z,3.47
2018-07-20T12:59:32.619Z,3.20
2018-07-20T13:02:15.307Z,3.10
2018-07-20T13:04:44.592Z,3.33
2018-07-20T13:07:14.323Z,3.10
2018-07-20T13:09:44.849Z,3.07
2018-07-20T13:12:15.497Z,2.90
2018-07-20T13:14:45.579Z,3.03
2018-07-20T13:17:16.324Z,2.80
2018-07-20T13:19:45.930Z,2.80
2018-07-20T13:22:18.538Z,2.90
2018-07-20T13:24:48.083Z,2.97
2018-07-20T13:27:18.196Z,2.97
2018-07-20T13:29:48.937Z,2.90
2018-07-20T13:32:24.883Z,2.43
2018-07-20T13:34:55.456Z,3.00
2018-07-20T13:37:26.434Z,2.50
2018-07-20T13:39:59.031Z,2.90
2018-07-20T13:42:31.149Z,2.60
2018-07-20T13:45:01.728Z,2.90
2018-07-20T13:47:31.446Z,2.63
2018-07-20T13:50:02.798Z,2.83
2018-07-20T13:52:41.408Z,2.77
2018-07-20T13:55:14.148Z,2.43
2018-07-20T13:57:44.604Z,2.87
2018-07-20T14:00:15.685Z,2.63
2018-07-20T14:02:54.313Z,3.00
2018-07-20T14:05:25.940Z,2.43
2018-07-20T14:07:56.572Z,2.70
2018-07-20T14:10:27.481Z,2.70
2018-07-20T14:12:59.641Z,3.20
2018-07-20T14:15:29.725Z,3.00
2018-07-20T14:17:59.629Z,2.60
2018-07-20T14:20:29.397Z,3.43
2018-07-20T14:23:00.590Z,3.17
2018-07-20T14:25:30.419Z,3.10
2018-07-20T14:28:00.126Z,2.63
2018-07-20T14:30:29.893Z,3.00
2018-07-20T14:32:59.821Z,2.90
2018-07-20T14:35:29.736Z,3.00
2018-07-20T14:37:59.380Z,3.10
2018-07-20T14:40:28.843Z,2.90
2018-07-20T14:42:58.729Z,2.87
2018-07-20T14:45:33.503Z,3.73
2018-07-20T14:48:02.784Z,3.40
2018-07-20T14:50:32.452Z,2.83
2018-07-20T14:53:13.578Z,2.40
2018-07-20T14:55:42.940Z,3.00
2018-07-20T14:58:12.148Z,3.07
2018-07-20T15:00:41.736Z,3.13
2018-07-20T15:03:11.681Z,3.10
2018-07-20T15:05:41.587Z,3.13
2018-07-20T15:08:10.852Z,3.00
2018-07-20T15:10:40.495Z,3.07
2018-07-20T15:13:13.366Z,3.10
2018-07-20T15:15:43.495Z,3.10
2018-07-20T15:18:13.130Z,2.97
2018-07-20T15:20:42.924Z,2.97
2018-07-20T15:28:12.665Z,2.97
2018-07-20T15:30:42.631Z,2.67
2018-07-20T15:33:11.893Z,2.90
2018-07-20T15:35:41.121Z,2.70
2018-07-20T15:38:10.175Z,2.80
2018-07-20T15:40:39.275Z,3.10
2018-07-20T15:43:08.551Z,2.80
2018-07-20T15:45:38.210Z,3.00
2018-07-20T15:48:07.501Z,3.33
2018-07-20T15:50:36.742Z,3.73
2018-07-20T15:53:37.218Z,3.90
2018-07-20T15:55:35.583Z,3.40
2018-07-20T15:58:04.882Z,4.10
2018-07-20T16:00:34.525Z,3.53
2018-07-20T16:03:04.341Z,3.37
2018-07-20T16:05:37.853Z,3.63
2018-07-20T16:08:07.694Z,3.93
2018-07-20T16:10:37.370Z,3.93
2018-07-20T16:13:06.647Z,4.00
2018-07-20T16:15:44.060Z,3.87
2018-07-20T16:18:13.437Z,3.87
2018-07-20T16:20:43.094Z,4.43
2018-07-20T16:23:12.760Z,4.17
2018-07-20T16:25:54.286Z,4.07
2018-07-20T16:28:23.921Z,4.20
2018-07-20T16:30:54.128Z,4.57
2018-07-20T16:33:23.642Z,3.47
2018-07-20T16:36:12.129Z,4.63
2018-07-20T16:38:42.280Z,4.50
2018-07-20T16:41:16.711Z,5.10
2018-07-20T16:43:47.680Z,4.70
2018-07-20T16:46:27.907Z,4.27
2018-07-20T16:48:57.487Z,5.23
2018-07-20T16:51:27.450Z,5.23
2018-07-20T16:53:56.730Z,5.23
2018-07-20T16:56:26.735Z,5.10
2018-07-20T16:58:57.067Z,5.97
2018-07-20T17:01:26.345Z,6.03
2018-07-20T17:03:55.849Z,5.00
2018-07-20T17:06:26.442Z,5.33
2018-07-20T17:08:57.340Z,6.07
2018-07-20T17:11:26.636Z,4.93
2018-07-20T17:13:56.233Z,4.73
2018-07-20T17:16:26.374Z,5.13
2018-07-20T17:18:56.216Z,4.87
2018-07-20T17:21:26.057Z,5.30
2018-07-20T17:23:56.214Z,4.97
2018-07-20T17:26:25.713Z,5.23
2018-07-20T17:28:55.063Z,5.00
2018-07-20T17:31:25.211Z,4.70
2018-07-20T17:33:54.964Z,5.17
2018-07-20T17:36:30.688Z,5.17
2018-07-20T17:38:59.885Z,5.07
2018-07-20T17:41:30.332Z,5.27
2018-07-20T17:43:59.853Z,4.73
2018-07-20T17:46:29.102Z,5.20
2018-07-20T17:48:59.010Z,5.33
2018-07-20T17:51:28.496Z,4.63
2018-07-20T17:53:58.408Z,4.70
2018-07-20T17:56:28.826Z,4.73
2018-07-20T17:58:58.596Z,5.23
2018-07-20T18:01:27.854Z,5.10
2018-07-20T18:03:57.856Z,4.30
2018-07-20T18:06:27.348Z,5.47
2018-07-20T18:08:56.864Z,4.40
2018-07-20T18:11:27.172Z,4.53
2018-07-20T18:13:57.251Z,4.27
2018-07-20T18:16:27.026Z,4.33
2018-07-20T18:18:57.049Z,4.10
2018-07-20T18:21:28.110Z,3.43
2018-07-20T18:23:57.761Z,3.43
2018-07-20T18:26:29.865Z,3.50
2018-07-20T18:28:59.566Z,3.80
2018-07-20T18:31:29.039Z,4.20
2018-07-20T18:33:58.468Z,4.47
2018-07-20T18:36:28.279Z,3.83
2018-07-20T18:38:58.616Z,4.37
2018-07-20T18:41:28.115Z,3.60
2018-07-20T18:43:57.685Z,4.23
2018-07-20T18:46:27.836Z,3.40
2018-07-20T18:48:57.596Z,3.80
2018-07-20T18:51:27.561Z,3.70
2018-07-20T18:53:57.250Z,3.10
2018-07-20T18:56:26.856Z,3.27
2018-07-20T18:58:56.668Z,3.40
2018-07-20T19:01:26.290Z,3.50
2018-07-20T19:03:56.286Z,3.20
2018-07-20T19:06:26.484Z,3.50
2018-07-20T19:08:55.738Z,3.40
2018-07-20T19:11:25.872Z,3.53
2018-07-20T19:13:55.366Z,3.40
2018-07-20T19:16:25.337Z,3.50
2018-07-20T19:18:55.941Z,3.27
2018-07-20T19:21:26.003Z,3.33
2018-07-20T19:23:56.005Z,3.43
2018-07-20T19:26:26.847Z,3.10
2018-07-20T19:28:56.666Z,3.03
2018-07-20T19:31:25.953Z,3.50
2018-07-20T19:33:55.307Z,4.13
2018-07-20T19:36:25.953Z,3.50
2018-07-20T19:38:55.849Z,3.23
2018-07-20T19:41:26.458Z,4.10
2018-07-20T19:43:57.070Z,3.90
2018-07-20T19:46:26.481Z,3.80
2018-07-20T19:48:56.506Z,3.97
2018-07-20T19:51:26.905Z,3.57
2018-07-20T19:53:57.456Z,3.70
2018-07-20T19:56:28.500Z,3.50
2018-07-20T19:58:58.345Z,3.67
2018-07-20T20:01:28.882Z,3.50
2018-07-20T20:03:58.435Z,3.80
2018-07-20T20:06:29.548Z,3.50
2018-07-20T20:08:59.305Z,3.60
2018-07-20T20:11:28.662Z,3.40
2018-07-20T20:13:58.889Z,3.90
2018-07-20T20:16:29.477Z,3.50
2018-07-20T20:18:59.073Z,3.63
2018-07-20T20:21:29.433Z,3.57
2018-07-20T20:23:59.242Z,3.30
2018-07-20T20:26:31.084Z,3.43
2018-07-20T20:29:00.595Z,3.57
2018-07-20T20:31:30.649Z,3.83
2018-07-20T20:34:00.109Z,3.20
2018-07-20T20:36:29.474Z,3.80
2018-07-20T20:38:59.921Z,3.80
2018-07-20T20:41:29.995Z,3.23
2018-07-20T20:44:00.171Z,4.00
2018-07-20T20:46:31.873Z,4.10
2018-07-20T20:49:02.026Z,3.47
2018-07-20T20:51:32.023Z,3.77
2018-07-20T20:54:01.923Z,3.50
2018-07-20T20:56:39.286Z,4.13
2018-07-20T20:59:08.812Z,3.90
2018-07-20T21:01:39.081Z,4.00
2018-07-20T21:04:09.006Z,3.57
2018-07-20T21:06:40.588Z,3.73
2018-07-20T21:09:10.701Z,4.23
2018-07-20T21:11:40.909Z,4.13
2018-07-20T21:14:10.586Z,3.90
2018-07-20T21:16:41.964Z,4.10
2018-07-20T21:19:11.882Z,3.70
2018-07-20T21:21:41.837Z,3.73
2018-07-20T21:24:11.421Z,3.53
2018-07-20T21:26:40.677Z,3.80
2018-07-20T21:29:10.629Z,3.80
2018-07-20T21:31:40.609Z,3.93
2018-07-20T21:34:10.176Z,3.70
2018-07-20T21:36:40.629Z,3.97
2018-07-20T21:39:13.330Z,4.17
2018-07-20T21:41:43.810Z,3.77
2018-07-20T21:44:14.299Z,3.90
2018-07-20T21:46:53.906Z,3.90
2018-07-20T21:49:23.904Z,4.00
2018-07-20T21:51:53.462Z,3.80
2018-07-20T21:54:22.973Z,3.60
2018-07-20T22:02:03.783Z,4.10
2018-07-20T22:04:34.810Z,3.43
2018-07-20T22:07:05.027Z,3.80
2018-07-20T22:09:35.147Z,3.50
2018-07-20T22:12:09.254Z,3.77
2018-07-20T22:14:39.348Z,3.40
2018-07-20T22:17:09.407Z,3.80
2018-07-20T22:19:40.178Z,3.50
2018-07-20T22:22:11.658Z,3.60
2018-07-20T22:24:42.713Z,4.00
2018-07-20T22:27:12.120Z,4.30
2018-07-20T22:29:42.281Z,3.30
2018-07-20T22:35:12.253Z,3.70
2018-07-20T22:37:42.693Z,3.30
2018-07-20T22:40:12.795Z,3.67
2018-07-20T22:45:36.564Z,3.90
2018-07-20T22:48:06.717Z,3.73
2018-07-20T22:50:36.764Z,3.67
2018-07-20T22:53:06.317Z,3.60
2018-07-20T22:55:56.311Z,3.60
2018-07-20T22:58:26.458Z,3.77
2018-07-20T23:00:56.800Z,4.00
2018-07-20T23:03:27.521Z,3.70
2018-07-20T23:05:59.641Z,3.60
2018-07-20T23:08:29.970Z,3.80
2018-07-20T23:11:10.478Z,3.80
2018-07-20T23:13:49.354Z,4.17
2018-07-20T23:16:20.015Z,4.17
2018-07-20T23:18:52.164Z,3.27
2018-07-20T23:21:25.012Z,4.40
2018-07-20T23:24:09.252Z,3.70
2018-07-20T23:26:40.542Z,3.77
2018-07-20T23:29:10.195Z,3.80
2018-07-20T23:31:41.719Z,3.90
2018-07-20T23:34:13.245Z,3.73
2018-07-20T23:36:45.016Z,3.50
2018-07-20T23:39:16.417Z,3.80
2018-07-20T23:41:47.261Z,3.47
2018-07-20T23:44:21.647Z,3.47
2018-07-20T23:46:51.266Z,3.10
2018-07-20T23:49:22.105Z,3.50
2018-07-20T23:51:52.401Z,3.40
2018-07-20T23:54:23.014Z,3.63
2018-07-20T23:56:52.751Z,4.00
2018-07-20T23:59:22.796Z,3.70
